27°C Temp
16°C Dewpoint
51% Humidity
Temperature
8 KM/H
5 MPH
4 KTS
Calm
Due North

Wind Speed
Clear
Conditions
Pressure 1012.92 (hPa) - 29.91 (in)
Visibility 6.2 (mi) - 10.0 (km)

Current Conditions
LEJR
Location 25(km)
Metar :LEJR 231130Z VRB04KT CAVOK 27/16 Q1013
Mon 23rd May 13:30 pm

Airport
  Metar Aviation API Data Provided by https://www.checkwx.com/ PHP scripts by weather34.com ©2022